Hauptseite
METAR-TAF:

METAR-TAF

Flughäfen :

Kraljevo, Serbien

Breite: 43-49-07N, Länge: 020-35-07E, Höhe: 209 m

Beobachtung

Neuester Wetterbericht von vor 39 Minuten, um 22:00 UTC
Windstille
Temperatur 3°C
Luftfeuchtigkeit 60%
Luftdruck 1025 hPa
Sichtweite 10 km oder mehr
keine Wolken unter 1500 m und keine Kumulonimbus oder Gewitterwolken

METAR: LYKV 082200Z 00000KT CAVOK 03/M04 Q1025 NOSIG

Zeit: 00:39 (22:39 UTC)

Prognose

Neuester Wetterbericht von vor 5 Stunden und 39 Minuten, um 17:00 UTC
Gültige Prognose vom 08 um 18 UTC bis 09 um 18 UTC
Wind 5 kt aus Ost
Sichtweite 10 km oder mehr
keine Wolken unter 1500 m und keine Kumulonimbus oder Gewitterwolken

TAF: LYKV 081700Z 0818/0918 08005KT CAVOK TX22/0913Z TNM02/0904Z

Wetterbeobachtungen und Prognosen von mehr als 4000 Flughäfen (METAR und TAF Bericht).

Die verfügbaren Stationen werden durch gelbe und rote Markierungen auf der Karte dargestellt.

Führen Sie die Maus auf sie, um den Namen der Station zu sehen.

Darauf klicken, um die Beobachtung von Wetterbeobachtungen und Prognosen zu sehen.

Um die Karte zu ändern : klicken Sie auf den grünen Tasten mit einem schwarzen Kreuz Zum Vergrößern, auf den grünen Button mit einem Gedankenstrich zu verkleinern, oder auf die grünen Pfeile für benachbarte Karten.


METAR-TAF: